Aviation Digital Data Service (ADDS)

Output produced by TAFs form (1955 UTC 17 December 2014)
found at http://aviationweather.gov/adds/tafs/
 
KAEG 171740Z 1718/1818 22008KT P6SM OVC035 
     TEMPO 1718/1722 5SM -SHSN OVC015 
     FM180200 25005KT P6SM OVC040